Time;durP1;ratioP1;P1;durP2;ratioP2;P2;SDS_P1;SDS_P2;PMS_P1;PMS_P2;Temp;Humidity;BMP_temperature;BMP_pressure;BME280_temperature;BME280_humidity;BME280_pressure;Samples;Min_cycle;Max_cycle;Signal;HPM_P1;HPM_P2
2023/03/05 00:01:36;;;;;;;12.43;3.40;;;;;;;5.99;63.30;100343.91;5138066;27;20055;-76
2023/03/05 00:04:04;;;;;;;7.07;2.00;;;;;;;6.04;63.56;100350.31;5140567;27;20018;-76
2023/03/05 00:06:31;;;;;;;5.53;1.45;;;;;;;6.10;63.54;100340.53;5139042;27;20043;-77
2023/03/05 00:08:57;;;;;;;5.88;1.85;;;;;;;6.10;63.65;100348.66;5139043;27;20472;-77
2023/03/05 00:11:24;;;;;;;7.72;2.25;;;;;;;6.09;64.06;100341.56;5139949;27;20508;-76
2023/03/05 00:13:54;;;;;;;8.77;2.55;;;;;;;6.05;64.34;100340.31;5139519;27;20055;-77
2023/03/05 00:16:20;;;;;;;16.60;2.90;;;;;;;6.09;64.49;100329.91;5139550;27;20442;-76
2023/03/05 00:18:46;;;;;;;9.32;2.50;;;;;;;6.06;64.83;100331.19;5138857;27;20031;-76
2023/03/05 00:21:23;;;;;;;10.55;3.63;;;;;;;6.10;64.83;100328.88;5140853;27;20108;-76
2023/03/05 00:23:49;;;;;;;10.27;1.98;;;;;;;5.91;65.89;100328.75;5139961;27;20027;-77
2023/03/05 00:26:19;;;;;;;4.78;1.95;;;;;;;6.01;66.22;100325.56;5139614;27;20139;-77
2023/03/05 00:28:48;;;;;;;13.10;2.97;;;;;;;6.06;66.05;100331.19;5140077;27;20039;-76
2023/03/05 00:31:14;;;;;;;9.02;3.63;;;;;;;5.98;66.40;100324.13;5137010;27;20042;-77
2023/03/05 00:33:40;;;;;;;6.93;3.15;;;;;;;6.01;67.19;100328.28;5139779;27;20612;-77
2023/03/05 00:36:06;;;;;;;10.87;3.13;;;;;;;5.86;67.80;100326.69;5139999;27;20186;-76
2023/03/05 00:38:32;;;;;;;21.27;5.63;;;;;;;5.94;68.06;100317.47;5138449;27;20255;-76
2023/03/05 00:40:57;;;;;;;8.63;3.58;;;;;;;5.91;68.72;100318.78;5139188;27;20039;-77
2023/03/05 00:43:22;;;;;;;10.60;3.10;;;;;;;5.57;69.18;100308.16;5141881;27;20417;-76
2023/03/05 00:45:48;;;;;;;16.70;6.72;;;;;;;5.29;70.91;100306.66;5144585;27;20255;-77
2023/03/05 00:48:13;;;;;;;8.77;2.97;;;;;;;5.65;70.18;100309.81;5143302;27;20035;-77
2023/03/05 00:50:38;;;;;;;7.82;3.00;;;;;;;5.73;69.81;100306.00;5143643;27;20472;-77
2023/03/05 00:53:03;;;;;;;8.73;3.43;;;;;;;5.78;69.62;100314.28;5143499;27;20067;-77
2023/03/05 00:55:29;;;;;;;7.88;3.33;;;;;;;5.82;69.50;100309.25;5143358;27;20257;-78
2023/03/05 00:57:54;;;;;;;10.60;2.60;;;;;;;5.88;69.21;100310.28;5143096;27;20035;-77
2023/03/05 01:00:19;;;;;;;16.50;3.60;;;;;;;5.83;69.88;100300.94;5143493;27;20155;-77
2023/03/05 01:02:45;;;;;;;9.98;5.03;;;;;;;5.81;69.87;100297.63;5142626;27;20266;-77
2023/03/05 01:05:12;;;;;;;9.53;3.10;;;;;;;5.89;69.97;100295.66;5144133;27;20074;-76
2023/03/05 01:07:37;;;;;;;9.63;5.22;;;;;;;5.88;70.18;100294.84;5142152;27;20278;-77
2023/03/05 01:10:03;;;;;;;8.47;4.17;;;;;;;5.76;70.32;100296.59;5143196;27;20079;-77
2023/03/05 01:12:28;;;;;;;15.80;4.47;;;;;;;5.67;70.68;100291.47;5144447;27;20273;-76
2023/03/05 01:14:53;;;;;;;13.97;3.83;;;;;;;5.70;71.10;100287.47;5143010;27;20130;-77
2023/03/05 01:17:19;;;;;;;7.33;2.63;;;;;;;5.77;71.00;100285.56;5142858;27;20739;-76
2023/03/05 01:19:44;;;;;;;9.20;3.00;;;;;;;5.75;70.84;100289.53;5143818;27;20289;-78
2023/03/05 01:22:09;;;;;;;11.97;4.83;;;;;;;5.69;70.98;100289.38;5142575;27;20302;-77
2023/03/05 01:24:34;;;;;;;22.93;6.57;;;;;;;5.44;71.55;100287.44;5143774;27;20251;-76
2023/03/05 01:27:00;;;;;;;8.23;3.50;;;;;;;5.53;71.77;100279.09;5142680;27;20784;-76
2023/03/05 01:29:26;;;;;;;16.77;3.60;;;;;;;5.51;71.75;100282.00;5142407;27;20266;-76
2023/03/05 01:31:51;;;;;;;7.68;2.95;;;;;;;5.65;71.41;100282.75;5144110;27;20039;-77
2023/03/05 01:34:17;;;;;;;7.93;2.33;;;;;;;5.56;71.42;100278.63;5141449;27;20052;-76
2023/03/05 01:36:42;;;;;;;7.20;3.08;;;;;;;5.45;71.66;100275.56;5144372;27;20282;-76
2023/03/05 01:39:07;;;;;;;6.13;1.95;;;;;;;5.55;71.72;100269.69;5142630;27;20447;-77
2023/03/05 01:41:33;;;;;;;5.28;1.85;;;;;;;5.63;70.71;100265.91;5143881;27;20035;-76
2023/03/05 01:43:59;;;;;;;5.25;2.17;;;;;;;5.62;70.75;100264.22;5142977;27;20039;-76
2023/03/05 01:46:26;;;;;;;6.03;1.85;;;;;;;5.56;71.18;100265.94;5143277;27;20130;-76
2023/03/05 01:49:00;;;;;;;8.88;3.05;;;;;;;5.30;71.43;100256.97;5142232;27;20426;-77
2023/03/05 01:51:29;;;;;;;9.95;2.53;;;;;;;5.30;72.13;100248.84;5142489;27;20047;-76
2023/03/05 01:53:58;;;;;;;13.57;5.03;;;;;;;5.37;71.69;100243.38;5142666;27;20035;-77
2023/03/05 01:56:26;;;;;;;9.13;2.92;;;;;;;5.46;71.47;100250.19;5143435;27;20049;-77
2023/03/05 01:58:53;;;;;;;8.57;3.40;;;;;;;5.43;71.77;100245.22;5141873;27;20035;-76
2023/03/05 02:01:18;;;;;;;6.28;2.20;;;;;;;5.45;71.27;100245.00;5141141;27;20042;-76
2023/03/05 02:03:45;;;;;;;11.90;2.60;;;;;;;5.49;71.68;100236.22;5142960;27;20399;-76
2023/03/05 02:06:10;;;;;;;9.57;3.80;;;;;;;5.41;71.52;100241.91;5140483;27;20100;-76
2023/03/05 02:08:35;;;;;;;11.15;4.80;;;;;;;5.33;73.04;100244.88;5141933;27;20039;-77
2023/03/05 02:11:02;;;;;;;9.77;3.65;;;;;;;5.46;72.48;100247.50;5142197;27;20035;-76
2023/03/05 02:13:31;;;;;;;13.55;3.25;;;;;;;5.39;72.33;100238.59;5142304;27;20038;-77
2023/03/05 02:15:59;;;;;;;15.98;4.20;;;;;;;5.44;72.07;100237.94;5141020;27;20030;-76
2023/03/05 02:18:25;;;;;;;13.15;3.40;;;;;;;5.48;71.84;100237.28;5140486;27;20045;-76
2023/03/05 02:20:56;;;;;;;9.98;4.25;;;;;;;5.55;71.55;100231.00;5139710;27;20110;-77
2023/03/05 02:23:28;;;;;;;12.85;3.22;;;;;;;5.58;71.89;100225.13;5138819;27;20380;-76
2023/03/05 02:25:53;;;;;;;11.77;5.00;;;;;;;5.56;71.81;100227.22;5140771;27;20027;-77
2023/03/05 02:28:23;;;;;;;6.53;2.72;;;;;;;5.53;71.66;100224.97;5140456;27;20118;-76
2023/03/05 02:30:49;;;;;;;13.43;4.78;;;;;;;5.49;71.12;100221.91;5140880;27;20455;-76
2023/03/05 02:33:16;;;;;;;14.43;3.97;;;;;;;5.40;72.34;100221.31;5141447;27;20031;-76
2023/03/05 02:35:42;;;;;;;6.70;2.53;;;;;;;5.37;72.58;100210.94;5141341;27;20423;-76
2023/03/05 02:38:08;;;;;;;8.60;3.95;;;;;;;5.46;72.70;100209.63;5140661;27;20045;-76
2023/03/05 02:40:33;;;;;;;10.35;3.75;;;;;;;5.46;72.49;100212.34;5141589;27;20023;-76
2023/03/05 02:42:59;;;;;;;8.07;3.67;;;;;;;5.47;72.95;100210.47;5139857;27;20516;-76
2023/03/05 02:45:24;;;;;;;6.55;2.13;;;;;;;5.47;72.75;100205.06;5141690;27;20511;-76
2023/03/05 02:47:49;;;;;;;8.40;2.80;;;;;;;5.46;72.66;100204.22;5140805;27;20105;-76
2023/03/05 02:50:15;;;;;;;7.05;2.72;;;;;;;5.39;72.85;100198.00;5141186;27;20254;-76
2023/03/05 02:52:40;;;;;;;6.57;2.75;;;;;;;5.38;72.97;100199.09;5141089;27;20379;-76
2023/03/05 02:55:06;;;;;;;7.10;1.98;;;;;;;5.41;72.53;100206.75;5140639;27;20050;-77
2023/03/05 02:57:32;;;;;;;7.28;2.50;;;;;;;5.37;72.38;100194.69;5141641;27;20047;-76
2023/03/05 02:59:57;;;;;;;10.63;3.88;;;;;;;5.38;72.52;100193.66;5141909;27;20069;-76
2023/03/05 03:02:22;;;;;;;8.13;2.10;;;;;;;5.35;72.48;100186.00;5140381;27;20023;-76
2023/03/05 03:04:48;;;;;;;6.65;1.60;;;;;;;5.37;72.16;100183.88;5141301;27;20463;-76
2023/03/05 03:07:14;;;;;;;3.38;1.13;;;;;;;5.39;71.92;100181.78;5139824;27;20039;-76
2023/03/05 03:09:41;;;;;;;4.97;1.27;;;;;;;5.43;71.45;100182.22;5140346;27;20034;-77
2023/03/05 03:12:08;;;;;;;3.67;1.05;;;;;;;5.40;71.72;100172.66;5138944;27;20085;-77
2023/03/05 03:14:38;;;;;;;5.78;1.58;;;;;;;5.38;71.55;100174.75;5139752;27;20029;-76
2023/03/05 03:17:07;;;;;;;4.60;0.95;;;;;;;5.42;71.77;100161.59;5139926;27;20026;-76
2023/03/05 03:19:32;;;;;;;7.53;1.58;;;;;;;5.42;71.58;100159.72;5138900;27;20675;-76
2023/03/05 03:21:58;;;;;;;10.88;3.30;;;;;;;5.43;71.33;100161.38;5140393;27;20019;-77
2023/03/05 03:24:23;;;;;;;7.97;2.65;;;;;;;5.44;71.82;100160.34;5140135;27;20026;-77
2023/03/05 03:26:49;;;;;;;8.27;2.88;;;;;;;5.44;72.00;100154.94;5140769;27;20432;-77
2023/03/05 03:29:15;;;;;;;5.03;1.58;;;;;;;5.07;72.79;100154.78;5140099;27;20371;-77
2023/03/05 03:31:40;;;;;;;7.57;2.42;;;;;;;5.20;73.13;100157.41;5140423;27;20079;-76
2023/03/05 03:34:06;;;;;;;5.35;1.88;;;;;;;5.25;72.58;100151.31;5138885;27;20088;-76
2023/03/05 03:36:32;;;;;;;5.72;1.58;;;;;;;5.33;72.66;100152.94;5140150;27;20064;-77
2023/03/05 03:38:57;;;;;;;4.68;1.60;;;;;;;5.35;72.43;100142.75;5141933;27;20181;-76
2023/03/05 03:41:23;;;;;;;5.88;1.50;;;;;;;5.19;72.57;100150.34;5138802;27;20034;-75
2023/03/05 03:43:48;;;;;;;5.57;2.00;;;;;;;5.21;72.75;100142.81;5141075;27;20023;-76
2023/03/05 03:46:13;;;;;;;13.18;2.20;;;;;;;5.25;72.41;100138.63;5139740;27;20243;-76
2023/03/05 03:48:38;;;;;;;4.63;1.30;;;;;;;5.28;72.48;100131.97;5139406;27;20506;-76
2023/03/05 03:51:05;;;;;;;4.63;1.50;;;;;;;4.83;73.24;100138.31;5139988;27;20311;-75
2023/03/05 03:53:31;;;;;;;4.10;1.30;;;;;;;4.81;73.94;100126.88;5139870;27;20339;-76
2023/03/05 03:55:58;;;;;;;5.05;1.40;;;;;;;5.07;73.08;100133.16;5140171;27;20117;-76
2023/03/05 03:58:23;;;;;;;5.30;1.90;;;;;;;5.24;72.71;100123.47;5139695;27;20088;-77
2023/03/05 04:00:48;;;;;;;4.57;1.80;;;;;;;5.36;72.57;100120.06;5139801;27;20035;-76
2023/03/05 04:03:13;;;;;;;6.95;1.60;;;;;;;5.26;72.50;100115.16;5140344;27;20736;-76
2023/03/05 04:05:39;;;;;;;12.35;3.80;;;;;;;5.08;72.96;100118.63;5142595;27;20031;-77
2023/03/05 04:08:07;;;;;;;2.57;1.00;;;;;;;5.21;73.03;100114.97;5139445;27;20525;-76
2023/03/05 04:10:32;;;;;;;7.47;2.53;;;;;;;5.23;72.47;100108.28;5140209;27;20247;-77
2023/03/05 04:12:57;;;;;;;7.68;1.92;;;;;;;5.04;73.09;100098.47;5139107;27;20181;-77
2023/03/05 04:15:23;;;;;;;6.60;1.67;;;;;;;5.09;73.02;100101.34;5139722;27;20027;-78
2023/03/05 04:17:49;;;;;;;6.03;1.80;;;;;;;5.20;72.67;100097.09;5136998;27;20257;-77
2023/03/05 04:20:14;;;;;;;4.97;2.13;;;;;;;5.17;73.12;100092.13;5139855;27;20388;-77
2023/03/05 04:22:39;;;;;;;5.75;1.83;;;;;;;4.96;73.16;100103.13;5138990;27;20248;-78
2023/03/05 04:25:05;;;;;;;8.50;2.33;;;;;;;4.89;74.09;100096.91;5139848;27;20027;-77
2023/03/05 04:27:33;;;;;;;12.70;3.95;;;;;;;4.92;73.80;100103.75;5138759;27;20023;-77
2023/03/05 04:29:58;;;;;;;7.32;2.45;;;;;;;5.08;73.83;100095.13;5139966;27;20408;-77
2023/03/05 04:32:28;;;;;;;7.45;2.15;;;;;;;5.16;73.59;100095.88;5139216;27;20042;-77
2023/03/05 04:34:55;;;;;;;8.48;2.90;;;;;;;5.08;73.65;100084.31;5139120;27;20599;-77
2023/03/05 04:37:20;;;;;;;6.75;2.72;;;;;;;5.19;73.41;100090.84;5138693;27;20022;-76
2023/03/05 04:39:45;;;;;;;5.97;1.83;;;;;;;5.13;73.60;100081.75;5138182;27;20034;-76
2023/03/05 04:42:11;;;;;;;7.60;2.55;;;;;;;5.17;73.85;100076.72;5139258;27;20066;-76
2023/03/05 04:44:36;;;;;;;7.50;2.80;;;;;;;5.02;74.14;100068.97;5139166;27;20080;-76
2023/03/05 04:47:01;;;;;;;7.83;3.33;;;;;;;4.76;75.49;100071.63;5139758;27;20615;-76
2023/03/05 04:49:26;;;;;;;10.48;2.67;;;;;;;4.97;75.24;100071.50;5137868;27;20312;-76
2023/03/05 04:51:52;;;;;;;7.75;2.63;;;;;;;5.11;74.59;100064.09;5139099;27;20031;-76
2023/03/05 04:54:17;;;;;;;6.97;2.60;;;;;;;5.10;74.99;100076.81;5139482;27;20035;-76
2023/03/05 04:56:42;;;;;;;7.35;2.47;;;;;;;4.97;75.24;100066.09;5138555;27;20047;-76
2023/03/05 04:59:07;;;;;;;8.23;2.38;;;;;;;5.04;75.43;100060.63;5138416;27;20106;-77
2023/03/05 05:01:34;;;;;;;14.57;3.20;;;;;;;5.11;75.65;100064.94;5139308;27;20027;-77
2023/03/05 05:03:59;;;;;;;14.50;3.65;;;;;;;5.06;75.54;100064.78;5139423;27;20259;-76
2023/03/05 05:06:24;;;;;;;9.52;2.67;;;;;;;4.96;75.59;100054.47;5138563;27;20388;-76
2023/03/05 05:08:50;;;;;;;7.07;2.65;;;;;;;5.01;75.87;100056.50;5138763;27;20072;-76
2023/03/05 05:11:15;;;;;;;8.73;2.70;;;;;;;5.01;75.67;100060.03;5139243;27;20392;-76
2023/03/05 05:13:40;;;;;;;12.50;3.92;;;;;;;5.04;76.16;100063.34;5139206;27;20279;-76
2023/03/05 05:16:07;;;;;;;8.70;3.78;;;;;;;5.11;75.97;100062.22;5137738;27;20060;-76
2023/03/05 05:18:32;;;;;;;10.93;4.97;;;;;;;5.09;75.96;100063.50;5137882;27;20028;-76
2023/03/05 05:20:57;;;;;;;12.20;5.68;;;;;;;5.04;76.21;100056.06;5137661;27;20023;-76
2023/03/05 05:23:23;;;;;;;12.90;7.00;;;;;;;4.93;76.89;100060.28;5139063;27;20042;-76
2023/03/05 05:26:00;;;;;;;10.80;5.65;;;;;;;4.86;76.61;100063.03;5137823;27;20050;-76
2023/03/05 05:28:25;;;;;;;11.82;5.97;;;;;;;4.82;77.45;100052.91;5137411;27;20414;-76
2023/03/05 05:30:51;;;;;;;14.65;7.05;;;;;;;4.88;77.05;100062.84;5144002;27;20027;-77
2023/03/05 05:33:16;;;;;;;20.67;7.43;;;;;;;4.76;77.50;100050.03;5143782;27;20030;-76
2023/03/05 05:35:41;;;;;;;12.27;5.20;;;;;;;4.79;77.87;100055.00;5142758;27;20038;-77
2023/03/05 05:38:07;;;;;;;17.30;6.43;;;;;;;4.94;77.50;100040.34;5141380;27;20083;-76
2023/03/05 05:40:32;;;;;;;15.30;6.57;;;;;;;5.01;77.39;100059.19;5141920;27;20098;-76
2023/03/05 05:42:57;;;;;;;18.25;5.07;;;;;;;4.90;76.65;100045.34;5140905;27;20022;-80
2023/03/05 05:45:22;;;;;;;10.23;5.28;;;;;;;4.91;77.43;100051.59;5141805;27;20535;-75
2023/03/05 05:47:48;;;;;;;14.13;5.70;;;;;;;5.00;76.96;100052.94;5141383;27;20058;-76
2023/03/05 05:50:13;;;;;;;14.48;5.57;;;;;;;4.72;77.34;100054.19;5141502;27;20778;-75
2023/03/05 05:52:39;;;;;;;12.30;5.55;;;;;;;4.69;78.21;100060.06;5143350;27;20034;-76
2023/03/05 05:55:05;;;;;;;13.73;6.00;;;;;;;4.78;77.67;100047.09;5141571;27;20033;-76
2023/03/05 05:57:30;;;;;;;14.40;6.78;;;;;;;4.88;77.31;100046.63;5142145;27;20058;-76
2023/03/05 05:59:56;;;;;;;18.10;6.07;;;;;;;4.85;76.68;100047.06;5142466;27;20027;-76
2023/03/05 06:02:21;;;;;;;13.35;6.43;;;;;;;4.56;77.57;100052.84;5141583;27;20478;-76
2023/03/05 06:04:46;;;;;;;14.65;6.55;;;;;;;4.46;77.89;100045.25;5142082;27;20408;-76
2023/03/05 06:07:11;;;;;;;16.90;6.23;;;;;;;4.41;79.43;100045.88;5141723;27;20509;-77
2023/03/05 06:09:37;;;;;;;11.93;6.27;;;;;;;4.75;78.34;100039.44;5141418;27;20258;-76
2023/03/05 06:12:02;;;;;;;10.98;5.93;;;;;;;4.88;77.63;100041.22;5141065;27;20247;-77
2023/03/05 06:14:28;;;;;;;19.73;7.53;;;;;;;4.98;77.30;100038.84;5142459;27;20031;-76
2023/03/05 06:16:53;;;;;;;16.02;6.45;;;;;;;4.89;76.66;100038.31;5142706;27;20023;-76
2023/03/05 06:19:18;;;;;;;16.57;6.73;;;;;;;4.48;78.33;100043.16;5140861;27;20372;-75
2023/03/05 06:21:43;;;;;;;13.80;5.60;;;;;;;4.70;78.18;100044.69;5139944;27;20259;-76
2023/03/05 06:24:09;;;;;;;19.33;7.40;;;;;;;4.87;77.50;100034.16;5141948;27;20267;-76
2023/03/05 06:26:34;;;;;;;14.25;5.82;;;;;;;4.94;77.31;100034.94;5142394;27;20251;-76
2023/03/05 06:29:00;;;;;;;15.43;6.70;;;;;;;4.94;76.89;100026.84;5141325;27;20034;-76
2023/03/05 06:31:28;;;;;;;16.42;7.28;;;;;;;4.96;77.29;100032.84;5141371;27;20031;-76
2023/03/05 06:33:55;;;;;;;13.23;6.63;;;;;;;5.03;76.97;100040.88;5141121;27;20098;-76
2023/03/05 06:36:23;;;;;;;10.73;5.45;;;;;;;4.95;76.93;100039.28;5141878;27;20035;-76
2023/03/05 06:38:48;;;;;;;10.77;5.25;;;;;;;4.78;78.14;100034.41;5139067;27;20105;-76
2023/03/05 06:41:17;;;;;;;11.00;5.38;;;;;;;4.84;77.33;100029.19;5141158;27;20035;-76
2023/03/05 06:43:44;;;;;;;10.30;3.92;;;;;;;4.79;78.10;100032.56;5141289;27;20027;-76
2023/03/05 06:46:14;;;;;;;10.05;3.65;;;;;;;4.96;77.99;100026.63;5140518;27;20078;-76
2023/03/05 06:48:39;;;;;;;10.25;4.60;;;;;;;5.02;77.57;100026.53;5138578;27;20035;-77
2023/03/05 06:51:19;;;;;;;11.18;3.70;;;;;;;4.91;77.78;100024.56;5141081;27;20039;-77
2023/03/05 06:53:45;;;;;;;10.65;3.72;;;;;;;4.98;77.58;100025.31;5140700;27;20035;-76
2023/03/05 06:56:12;;;;;;;11.25;3.67;;;;;;;4.99;77.59;100021.59;5138993;27;20072;-75
2023/03/05 06:58:41;;;;;;;7.38;3.05;;;;;;;5.07;77.58;100023.19;5140562;27;20046;-76
2023/03/05 07:01:06;;;;;;;5.65;2.70;;;;;;;4.81;77.86;100021.53;5141304;27;20666;-76
2023/03/05 07:03:36;;;;;;;7.28;3.40;;;;;;;4.88;77.79;100020.41;5140856;27;20035;-77
2023/03/05 07:06:06;;;;;;;8.18;2.60;;;;;;;4.74;78.32;100025.09;5140027;27;20031;-76
2023/03/05 07:08:32;;;;;;;7.78;3.30;;;;;;;4.97;78.32;100020.97;5139966;27;20368;-77
2023/03/05 07:10:57;;;;;;;19.00;3.33;;;;;;;5.00;78.17;100017.81;5140714;27;20039;-77
2023/03/05 07:13:23;;;;;;;13.50;3.30;;;;;;;4.91;78.40;100019.16;5140791;27;20117;-77
2023/03/05 07:15:48;;;;;;;8.63;3.00;;;;;;;4.57;78.86;100014.03;5140622;27;20368;-76
2023/03/05 07:18:13;;;;;;;9.10;2.57;;;;;;;4.55;79.23;100016.94;5138980;27;20031;-77
2023/03/05 07:20:38;;;;;;;6.90;2.73;;;;;;;4.71;79.65;100017.44;5141037;27;20271;-78
2023/03/05 07:23:04;;;;;;;8.63;3.13;;;;;;;4.60;79.58;100012.72;5141998;27;20322;-76
2023/03/05 07:25:29;;;;;;;21.23;3.92;;;;;;;4.84;79.42;100013.00;5141222;27;20382;-76
2023/03/05 07:27:55;;;;;;;10.32;4.40;;;;;;;4.78;78.82;100007.41;5140508;27;20049;-75
2023/03/05 07:30:21;;;;;;;10.68;2.80;;;;;;;4.82;78.89;100007.78;5142253;27;20023;-77
2023/03/05 07:32:46;;;;;;;15.65;3.88;;;;;;;4.88;79.33;100011.50;5140159;27;20467;-76
2023/03/05 07:35:11;;;;;;;10.13;2.42;;;;;;;4.90;79.11;100012.91;5140627;27;20034;-76
2023/03/05 07:37:37;;;;;;;5.93;2.20;;;;;;;4.90;78.64;100001.31;5141259;27;20404;-76
2023/03/05 07:40:03;;;;;;;13.48;3.25;;;;;;;5.06;78.03;100009.91;5138745;27;20027;-76
2023/03/05 07:42:29;;;;;;;7.07;3.47;;;;;;;5.25;78.07;100003.47;5136240;27;20487;-76
2023/03/05 07:44:55;;;;;;;12.80;3.38;;;;;;;4.84;79.00;100008.41;5138688;27;20027;-77
2023/03/05 07:47:22;;;;;;;6.40;2.40;;;;;;;4.80;79.36;99993.66;5139455;27;20038;-76
2023/03/05 07:49:47;;;;;;;9.30;2.70;;;;;;;5.17;79.01;99994.81;5138828;27;20412;-77
2023/03/05 07:52:12;;;;;;;8.13;2.92;;;;;;;5.15;77.88;99992.31;5140112;27;20034;-76
2023/03/05 07:54:38;;;;;;;4.55;2.25;;;;;;;5.22;78.00;99998.50;5139911;27;20426;-76
2023/03/05 07:57:05;;;;;;;10.02;3.92;;;;;;;5.17;77.79;99990.22;5139056;27;20563;-77
2023/03/05 07:59:30;;;;;;;7.63;3.15;;;;;;;5.32;77.61;99987.19;5138702;27;20415;-77
2023/03/05 08:01:56;;;;;;;8.52;3.92;;;;;;;5.01;78.55;99984.34;5138771;27;20030;-76
2023/03/05 08:04:21;;;;;;;15.60;3.83;;;;;;;5.18;77.93;99989.19;5139346;27;20033;-77
2023/03/05 08:06:48;;;;;;;8.65;2.78;;;;;;;5.23;78.23;99986.63;5139526;27;20031;-77
2023/03/05 08:09:14;;;;;;;15.00;4.43;;;;;;;5.11;77.87;99986.53;5139401;27;20023;-77
2023/03/05 08:11:39;;;;;;;15.98;6.55;;;;;;;5.13;78.30;99989.03;5139457;27;20050;-77
2023/03/05 08:14:05;;;;;;;13.48;5.35;;;;;;;5.20;78.08;99989.81;5138955;27;20034;-77
2023/03/05 08:16:30;;;;;;;14.48;5.97;;;;;;;5.41;77.99;99982.28;5139080;27;20035;-77
2023/03/05 08:18:57;;;;;;;12.73;4.80;;;;;;;5.43;77.51;99985.59;5136518;27;20151;-76
2023/03/05 08:21:28;;;;;;;16.40;5.90;;;;;;;5.11;76.91;99980.31;5136008;27;20019;-77
2023/03/05 08:23:55;;;;;;;12.05;5.75;;;;;;;4.93;79.29;99979.22;5138232;27;20314;-77
2023/03/05 08:26:22;;;;;;;13.55;5.82;;;;;;;5.15;78.62;99976.09;5139348;27;20059;-76
2023/03/05 08:28:49;;;;;;;20.58;8.40;;;;;;;5.29;78.23;99970.59;5138459;27;20035;-77
2023/03/05 08:31:16;;;;;;;15.13;7.60;;;;;;;5.52;78.15;99974.47;5139026;27;20048;-77
2023/03/05 08:33:42;;;;;;;11.98;5.55;;;;;;;5.49;77.05;99976.59;5138775;27;20035;-77
2023/03/05 08:36:08;;;;;;;26.17;6.93;;;;;;;5.19;77.38;99977.31;5135794;27;20031;-77
2023/03/05 08:38:34;;;;;;;11.98;5.22;;;;;;;5.33;78.24;99971.78;5138014;27;20461;-76
2023/03/05 08:40:59;;;;;;;12.43;5.38;;;;;;;4.95;78.86;99966.31;5138163;27;20117;-77
2023/03/05 08:43:25;;;;;;;17.02;11.02;;;;;;;4.84;79.80;99969.75;5136433;27;20087;-77
2023/03/05 08:45:52;;;;;;;30.08;13.27;;;;;;;4.91;79.03;99959.72;5137982;27;20042;-77
2023/03/05 08:48:17;;;;;;;13.07;8.07;;;;;;;5.08;79.29;99967.25;5136465;27;20395;-77
2023/03/05 08:50:43;;;;;;;17.52;8.18;;;;;;;5.23;78.35;99965.00;5136591;27;20023;-76
2023/03/05 08:53:08;;;;;;;15.07;8.15;;;;;;;5.27;78.31;99961.88;5139684;27;20322;-77
2023/03/05 08:55:33;;;;;;;21.13;9.52;;;;;;;5.30;77.81;99956.00;5140055;27;20403;-78
2023/03/05 08:57:58;;;;;;;23.10;11.03;;;;;;;5.12;77.64;99954.94;5139456;27;20046;-77
2023/03/05 09:00:24;;;;;;;18.17;8.88;;;;;;;5.24;78.36;99953.16;5139717;27;20286;-77
2023/03/05 09:02:50;;;;;;;18.33;9.70;;;;;;;5.32;78.18;99948.50;5140114;27;20587;-77
2023/03/05 09:05:15;;;;;;;33.22;9.25;;;;;;;5.41;77.89;99963.34;5141750;27;20023;-78
2023/03/05 09:07:41;;;;;;;17.60;9.60;;;;;;;5.10;78.00;99952.47;5141157;27;20049;-78
2023/03/05 09:10:12;;;;;;;16.30;9.60;;;;;;;5.16;79.03;99953.44;5143857;27;20113;-77
2023/03/05 09:12:37;;;;;;;16.38;9.95;;;;;;;5.13;78.67;99953.88;5143148;27;20499;-79
2023/03/05 09:15:07;;;;;;;18.70;11.52;;;;;;;5.06;78.66;99945.03;5143162;27;20026;-78
2023/03/05 09:17:32;;;;;;;18.27;9.02;;;;;;;5.17;79.03;99952.38;5143355;27;20222;-78
2023/03/05 09:19:57;;;;;;;16.98;9.75;;;;;;;5.16;78.67;99941.81;5143874;27;20572;-78
2023/03/05 09:22:23;;;;;;;18.27;9.30;;;;;;;5.22;78.95;99947.16;5142366;27;20133;-77
2023/03/05 09:24:48;;;;;;;15.85;8.23;;;;;;;5.23;78.58;99948.78;5144014;27;20031;-79
2023/03/05 09:27:13;;;;;;;13.23;7.70;;;;;;;5.15;78.53;99946.38;5143207;27;20046;-78
2023/03/05 09:29:38;;;;;;;18.33;9.13;;;;;;;4.72;79.09;99950.75;5142816;27;20259;-78
2023/03/05 09:32:04;;;;;;;19.83;10.73;;;;;;;5.09;79.91;99940.00;5137955;27;20318;-78
2023/03/05 09:34:29;;;;;;;20.75;11.82;;;;;;;5.24;78.87;99944.22;5140560;27;20264;-79
2023/03/05 09:36:55;;;;;;;22.05;11.07;;;;;;;5.25;79.10;99935.88;5141574;27;20453;-78
2023/03/05 09:39:20;;;;;;;16.50;9.70;;;;;;;5.24;78.87;99936.09;5142384;27;20033;-79
2023/03/05 09:42:19;;;;;;;18.40;9.00;;;;;;;4.98;79.25;99936.16;5142208;27;20736;-79
2023/03/05 09:45:26;;;;;;;19.73;10.85;;;;;;;5.12;79.20;99930.63;5142376;27;20264;-77
2023/03/05 09:48:00;;;;;;;22.55;12.07;;;;;;;5.18;79.11;99935.13;5140354;27;20126;-78
2023/03/05 09:50:42;;;;;;;18.88;10.32;;;;;;;5.18;78.89;99926.19;5135847;27;20499;-79
2023/03/05 09:53:41;;;;;;;21.13;11.32;;;;;;;5.18;79.07;99931.59;5139928;27;20436;-78
2023/03/05 09:56:13;;;;;;;23.50;13.98;;;;;;;4.73;79.80;99930.78;5138654;27;20039;-79
2023/03/05 09:58:44;;;;;;;21.83;12.25;;;;;;;4.88;80.66;99927.75;5138682;27;20506;-79
2023/03/05 10:01:16;;;;;;;24.20;13.15;;;;;;;5.02;80.42;99921.13;5142130;27;20429;-78
2023/03/05 10:04:17;;;;;;;19.98;11.02;;;;;;;5.13;80.46;99924.16;5142344;27;20046;-78
2023/03/05 10:06:51;;;;;;;26.00;13.85;;;;;;;5.30;80.21;99926.25;5126564;27;20092;-78
2023/03/05 10:09:44;;;;;;;36.10;15.05;;;;;;;5.38;79.28;99915.16;5134353;27;20066;-78
2023/03/05 10:12:33;;;;;;;27.58;14.15;;;;;;;5.42;79.18;99915.50;5139243;27;20126;-78
2023/03/05 10:15:01;;;;;;;26.92;14.60;;;;;;;5.60;79.54;99911.97;5142390;27;20257;-78
2023/03/05 10:17:54;;;;;;;25.35;15.52;;;;;;;5.77;79.11;99912.16;5140403;27;20046;-80
2023/03/05 10:20:28;;;;;;;24.95;14.10;;;;;;;5.82;79.43;99906.03;5141676;27;20050;-78
2023/03/05 10:23:12;;;;;;;27.38;14.85;;;;;;;5.94;79.06;99898.81;5139925;27;20038;-79
2023/03/05 10:26:02;;;;;;;31.80;15.10;;;;;;;5.96;79.44;99893.97;5141654;27;20038;-79
2023/03/05 10:28:39;;;;;;;27.02;15.93;;;;;;;6.03;78.91;99893.91;5140755;27;20110;-80
2023/03/05 10:31:23;;;;;;;22.38;12.68;;;;;;;6.02;79.62;99888.72;5141307;27;20050;-79
2023/03/05 10:34:08;;;;;;;36.60;16.98;;;;;;;6.16;79.57;99887.47;5141563;27;20095;-79
2023/03/05 10:36:53;;;;;;;25.23;14.75;;;;;;;6.19;79.04;99884.31;5142656;27;20083;-77
2023/03/05 10:39:42;;;;;;;27.63;12.23;;;;;;;6.00;79.41;99878.09;5141323;27;20034;-78
2023/03/05 10:42:36;;;;;;;22.98;12.32;;;;;;;6.08;79.44;99868.88;5141237;27;20039;-78
2023/03/05 10:45:13;;;;;;;24.30;12.63;;;;;;;6.11;78.89;99873.81;5142165;27;20360;-78
2023/03/05 10:47:51;;;;;;;17.70;10.23;;;;;;;6.32;79.46;99865.38;5139785;27;20098;-78
2023/03/05 10:50:18;;;;;;;20.73;9.93;;;;;;;6.37;78.14;99869.03;5138665;27;20027;-78
2023/03/05 10:52:47;;;;;;;22.88;11.43;;;;;;;6.38;77.65;99856.31;5140786;27;20043;-76
2023/03/05 10:55:15;;;;;;;20.42;8.70;;;;;;;6.40;77.62;99848.78;5140546;27;20035;-77
2023/03/05 10:57:41;;;;;;;19.23;10.27;;;;;;;6.25;78.18;99857.34;5140580;27;20038;-79
2023/03/05 11:00:21;;;;;;;15.73;8.63;;;;;;;6.38;78.17;99849.03;5140382;27;20038;-79
2023/03/05 11:03:03;;;;;;;16.27;10.25;;;;;;;6.36;77.42;99851.13;5140548;27;20652;-78
2023/03/05 11:05:39;;;;;;;24.65;10.93;;;;;;;6.37;77.67;99844.66;5139994;27;20070;-78
2023/03/05 11:08:35;;;;;;;17.73;10.27;;;;;;;6.22;76.69;99844.28;5140728;27;20039;-78
2023/03/05 11:11:18;;;;;;;14.15;7.32;;;;;;;6.07;76.45;99835.56;5140483;27;20031;-77
2023/03/05 11:13:54;;;;;;;19.90;9.40;;;;;;;6.06;77.44;99836.59;5141101;27;20389;-78
2023/03/05 11:16:29;;;;;;;16.90;7.90;;;;;;;6.16;77.37;99838.72;5141843;27;20046;-79
2023/03/05 11:19:20;;;;;;;17.58;8.93;;;;;;;6.01;78.03;99839.16;5139821;27;20038;-79
2023/03/05 11:22:19;;;;;;;11.43;6.30;;;;;;;5.99;77.78;99837.75;5142645;27;20042;-79
2023/03/05 11:25:11;;;;;;;12.27;5.50;;;;;;;6.15;76.85;99830.84;5141249;27;20112;-79
2023/03/05 11:27:43;;;;;;;12.60;7.53;;;;;;;6.25;76.93;99827.56;5131089;27;20043;-78
2023/03/05 11:30:27;;;;;;;9.48;4.75;;;;;;;6.08;76.09;99828.28;5140958;27;20042;-79
2023/03/05 11:33:09;;;;;;;7.25;3.30;;;;;;;6.08;75.75;99833.69;5142331;27;20066;-78
2023/03/05 11:35:37;;;;;;;9.55;4.88;;;;;;;6.06;75.79;99830.38;5142301;27;20030;-82